sensor_id;sensor_type;location;lat;lon;timestamp;temperature;humidity
12291;DHT22;6208;48.956;9.076;2024-02-26T00:01:18;7.90;99.90
12291;DHT22;6208;48.956;9.076;2024-02-26T00:04:03;7.90;99.90
12291;DHT22;6208;48.956;9.076;2024-02-26T00:12:20;7.70;99.90
12291;DHT22;6208;48.956;9.076;2024-02-26T00:15:05;7.80;99.90
12291;DHT22;6208;48.956;9.076;2024-02-26T00:23:19;7.80;99.90
12291;DHT22;6208;48.956;9.076;2024-02-26T00:26:03;7.80;99.90
12291;DHT22;6208;48.956;9.076;2024-02-26T00:31:32;7.80;99.90
12291;DHT22;6208;48.956;9.076;2024-02-26T00:34:16;7.80;99.90
12291;DHT22;6208;48.956;9.076;2024-02-26T00:37:01;7.90;99.90
12291;DHT22;6208;48.956;9.076;2024-02-26T00:42:31;7.80;99.90
12291;DHT22;6208;48.956;9.076;2024-02-26T00:45:15;7.90;99.90
12291;DHT22;6208;48.956;9.076;2024-02-26T00:53:36;7.90;99.90
12291;DHT22;6208;48.956;9.076;2024-02-26T00:56:21;8.00;99.90
12291;DHT22;6208;48.956;9.076;2024-02-26T01:04:34;8.10;99.90
12291;DHT22;6208;48.956;9.076;2024-02-26T01:10:04;7.60;99.90
12291;DHT22;6208;48.956;9.076;2024-02-26T01:12:50;8.00;99.90
12291;DHT22;6208;48.956;9.076;2024-02-26T01:15:34;7.70;99.90
12291;DHT22;6208;48.956;9.076;2024-02-26T01:23:50;7.80;99.90
12291;DHT22;6208;48.956;9.076;2024-02-26T01:26:34;7.80;99.90
12291;DHT22;6208;48.956;9.076;2024-02-26T01:29:18;7.70;99.90
12291;DHT22;6208;48.956;9.076;2024-02-26T01:32:03;7.70;99.90
12291;DHT22;6208;48.956;9.076;2024-02-26T01:34:49;7.60;99.90
12291;DHT22;6208;48.956;9.076;2024-02-26T01:37:33;7.50;99.90
12291;DHT22;6208;48.956;9.076;2024-02-26T01:43:02;7.40;99.90
12291;DHT22;6208;48.956;9.076;2024-02-26T01:45:46;7.30;99.90
12291;DHT22;6208;48.956;9.076;2024-02-26T01:48:31;7.40;99.90
12291;DHT22;6208;48.956;9.076;2024-02-26T01:51:15;7.30;99.90
12291;DHT22;6208;48.956;9.076;2024-02-26T01:54:02;7.30;99.90
12291;DHT22;6208;48.956;9.076;2024-02-26T01:56:47;7.30;99.90
12291;DHT22;6208;48.956;9.076;2024-02-26T01:59:34;7.40;99.90
12291;DHT22;6208;48.956;9.076;2024-02-26T02:02:19;7.40;99.90
12291;DHT22;6208;48.956;9.076;2024-02-26T02:05:03;7.40;99.90
12291;DHT22;6208;48.956;9.076;2024-02-26T02:07:48;7.40;99.90
12291;DHT22;6208;48.956;9.076;2024-02-26T02:13:17;7.30;99.90
12291;DHT22;6208;48.956;9.076;2024-02-26T02:16:01;7.40;99.90
12291;DHT22;6208;48.956;9.076;2024-02-26T02:21:30;7.20;99.90
12291;DHT22;6208;48.956;9.076;2024-02-26T02:24:14;7.20;99.90
12291;DHT22;6208;48.956;9.076;2024-02-26T02:29:43;7.20;99.90
12291;DHT22;6208;48.956;9.076;2024-02-26T02:32:28;7.20;99.90
12291;DHT22;6208;48.956;9.076;2024-02-26T02:35:13;7.30;99.90
12291;DHT22;6208;48.956;9.076;2024-02-26T02:40:42;7.30;99.90
12291;DHT22;6208;48.956;9.076;2024-02-26T02:43:26;7.30;99.90
12291;DHT22;6208;48.956;9.076;2024-02-26T02:48:55;7.30;99.90
12291;DHT22;6208;48.956;9.076;2024-02-26T02:51:39;7.30;99.90
12291;DHT22;6208;48.956;9.076;2024-02-26T02:54:24;7.30;99.90
12291;DHT22;6208;48.956;9.076;2024-02-26T02:57:08;7.10;99.90
12291;DHT22;6208;48.956;9.076;2024-02-26T02:59:53;7.40;99.90
12291;DHT22;6208;48.956;9.076;2024-02-26T03:02:37;7.30;99.90
12291;DHT22;6208;48.956;9.076;2024-02-26T03:10:50;7.30;99.90
12291;DHT22;6208;48.956;9.076;2024-02-26T03:13:35;7.20;99.90
12291;DHT22;6208;48.956;9.076;2024-02-26T03:16:19;7.30;99.90
12291;DHT22;6208;48.956;9.076;2024-02-26T03:21:47;7.30;99.90
12291;DHT22;6208;48.956;9.076;2024-02-26T03:24:31;7.00;99.90
12291;DHT22;6208;48.956;9.076;2024-02-26T03:27:15;7.30;99.90
12291;DHT22;6208;48.956;9.076;2024-02-26T03:32:44;7.20;99.90
12291;DHT22;6208;48.956;9.076;2024-02-26T03:35:29;7.20;99.90
12291;DHT22;6208;48.956;9.076;2024-02-26T03:38:13;7.20;99.90
12291;DHT22;6208;48.956;9.076;2024-02-26T03:43:42;7.20;99.90
12291;DHT22;6208;48.956;9.076;2024-02-26T03:49:11;7.30;99.90
12291;DHT22;6208;48.956;9.076;2024-02-26T03:51:55;7.20;99.90
12291;DHT22;6208;48.956;9.076;2024-02-26T03:54:40;7.50;99.90
12291;DHT22;6208;48.956;9.076;2024-02-26T04:00:09;7.30;99.90
12291;DHT22;6208;48.956;9.076;2024-02-26T04:11:08;7.70;99.90
12291;DHT22;6208;48.956;9.076;2024-02-26T04:13:53;7.30;99.90
12291;DHT22;6208;48.956;9.076;2024-02-26T04:16:37;7.30;99.90
12291;DHT22;6208;48.956;9.076;2024-02-26T04:19:21;7.10;99.90
12291;DHT22;6208;48.956;9.076;2024-02-26T04:24:50;7.20;99.90
12291;DHT22;6208;48.956;9.076;2024-02-26T04:27:34;7.30;99.90
12291;DHT22;6208;48.956;9.076;2024-02-26T04:35:47;7.40;99.90
12291;DHT22;6208;48.956;9.076;2024-02-26T04:38:32;7.50;99.90
12291;DHT22;6208;48.956;9.076;2024-02-26T04:41:16;7.50;99.90
12291;DHT22;6208;48.956;9.076;2024-02-26T04:46:44;7.40;99.90
12291;DHT22;6208;48.956;9.076;2024-02-26T04:49:28;7.40;99.90
12291;DHT22;6208;48.956;9.076;2024-02-26T04:54:57;7.80;99.90
12291;DHT22;6208;48.956;9.076;2024-02-26T05:00:28;7.40;99.90
12291;DHT22;6208;48.956;9.076;2024-02-26T05:05:59;7.40;99.90
12291;DHT22;6208;48.956;9.076;2024-02-26T05:11:30;7.30;99.90
12291;DHT22;6208;48.956;9.076;2024-02-26T05:14:15;7.50;99.90
12291;DHT22;6208;48.956;9.076;2024-02-26T05:22:28;7.40;99.90
12291;DHT22;6208;48.956;9.076;2024-02-26T05:25:14;7.40;99.90
12291;DHT22;6208;48.956;9.076;2024-02-26T05:36:18;7.40;99.90
12291;DHT22;6208;48.956;9.076;2024-02-26T05:39:03;7.30;99.90
12291;DHT22;6208;48.956;9.076;2024-02-26T05:41:47;7.40;99.90
12291;DHT22;6208;48.956;9.076;2024-02-26T05:44:33;7.40;99.90
12291;DHT22;6208;48.956;9.076;2024-02-26T05:50:02;7.50;99.90
12291;DHT22;6208;48.956;9.076;2024-02-26T05:52:46;7.50;99.90
12291;DHT22;6208;48.956;9.076;2024-02-26T05:55:30;7.50;99.90
12291;DHT22;6208;48.956;9.076;2024-02-26T05:58:14;7.20;99.90
12291;DHT22;6208;48.956;9.076;2024-02-26T06:00:59;7.50;99.90
12291;DHT22;6208;48.956;9.076;2024-02-26T06:06:29;7.40;99.90
12291;DHT22;6208;48.956;9.076;2024-02-26T06:09:13;7.50;99.90
12291;DHT22;6208;48.956;9.076;2024-02-26T06:11:57;7.60;99.90
12291;DHT22;6208;48.956;9.076;2024-02-26T06:14:44;7.60;99.90
12291;DHT22;6208;48.956;9.076;2024-02-26T06:17:28;7.60;99.90
12291;DHT22;6208;48.956;9.076;2024-02-26T06:25:41;7.40;99.90
12291;DHT22;6208;48.956;9.076;2024-02-26T06:28:26;7.50;99.90
12291;DHT22;6208;48.956;9.076;2024-02-26T06:31:14;7.40;99.90
12291;DHT22;6208;48.956;9.076;2024-02-26T06:36:42;7.30;99.90
12291;DHT22;6208;48.956;9.076;2024-02-26T06:39:26;7.30;99.90
12291;DHT22;6208;48.956;9.076;2024-02-26T06:44:55;7.40;99.90
12291;DHT22;6208;48.956;9.076;2024-02-26T06:47:39;7.40;99.90
12291;DHT22;6208;48.956;9.076;2024-02-26T06:50:23;7.30;99.90
12291;DHT22;6208;48.956;9.076;2024-02-26T06:55:51;7.20;99.90
12291;DHT22;6208;48.956;9.076;2024-02-26T06:58:35;7.20;99.90
12291;DHT22;6208;48.956;9.076;2024-02-26T07:01:20;7.30;99.90
12291;DHT22;6208;48.956;9.076;2024-02-26T07:09:33;7.30;99.90
12291;DHT22;6208;48.956;9.076;2024-02-26T07:12:17;7.40;99.90
12291;DHT22;6208;48.956;9.076;2024-02-26T07:15:01;7.40;99.90
12291;DHT22;6208;48.956;9.076;2024-02-26T07:20:32;7.40;99.90
12291;DHT22;6208;48.956;9.076;2024-02-26T07:28:46;7.80;99.90
12291;DHT22;6208;48.956;9.076;2024-02-26T07:31:30;7.60;99.90
12291;DHT22;6208;48.956;9.076;2024-02-26T07:36:59;7.50;99.90
12291;DHT22;6208;48.956;9.076;2024-02-26T07:39:43;7.50;99.90
12291;DHT22;6208;48.956;9.076;2024-02-26T07:42:27;7.50;99.90
12291;DHT22;6208;48.956;9.076;2024-02-26T07:45:12;7.90;99.90
12291;DHT22;6208;48.956;9.076;2024-02-26T07:47:56;7.70;99.90
12291;DHT22;6208;48.956;9.076;2024-02-26T07:50:40;7.60;99.90
12291;DHT22;6208;48.956;9.076;2024-02-26T07:56:11;7.50;99.90
12291;DHT22;6208;48.956;9.076;2024-02-26T07:58:56;7.50;99.90
12291;DHT22;6208;48.956;9.076;2024-02-26T08:01:40;7.50;99.90
12291;DHT22;6208;48.956;9.076;2024-02-26T08:07:10;7.40;99.90
12291;DHT22;6208;48.956;9.076;2024-02-26T08:15:23;7.50;99.90
12291;DHT22;6208;48.956;9.076;2024-02-26T08:18:08;7.50;99.90
12291;DHT22;6208;48.956;9.076;2024-02-26T08:20:52;7.90;99.90
12291;DHT22;6208;48.956;9.076;2024-02-26T08:26:20;7.40;99.90
12291;DHT22;6208;48.956;9.076;2024-02-26T08:29:06;7.80;99.90
12291;DHT22;6208;48.956;9.076;2024-02-26T08:31:50;7.40;99.90
12291;DHT22;6208;48.956;9.076;2024-02-26T08:34:35;7.40;99.90
12291;DHT22;6208;48.956;9.076;2024-02-26T08:40:04;7.50;99.90
12291;DHT22;6208;48.956;9.076;2024-02-26T08:42:48;7.60;99.90
12291;DHT22;6208;48.956;9.076;2024-02-26T08:45:32;7.50;99.90
12291;DHT22;6208;48.956;9.076;2024-02-26T08:51:07;7.60;99.90
12291;DHT22;6208;48.956;9.076;2024-02-26T08:53:52;7.60;99.90
12291;DHT22;6208;48.956;9.076;2024-02-26T08:56:37;7.90;99.90
12291;DHT22;6208;48.956;9.076;2024-02-26T08:59:21;7.60;99.90
12291;DHT22;6208;48.956;9.076;2024-02-26T09:02:08;7.70;99.90
12291;DHT22;6208;48.956;9.076;2024-02-26T09:10:23;7.80;99.90
12291;DHT22;6208;48.956;9.076;2024-02-26T09:18:37;7.90;99.90
12291;DHT22;6208;48.956;9.076;2024-02-26T09:24:13;8.00;99.90
12291;DHT22;6208;48.956;9.076;2024-02-26T09:26:58;8.00;99.90
12291;DHT22;6208;48.956;9.076;2024-02-26T09:35:11;8.10;99.90
12291;DHT22;6208;48.956;9.076;2024-02-26T09:40:41;7.90;99.90
12291;DHT22;6208;48.956;9.076;2024-02-26T09:43:27;8.40;99.90
12291;DHT22;6208;48.956;9.076;2024-02-26T09:49:01;8.40;99.90
12291;DHT22;6208;48.956;9.076;2024-02-26T09:51:49;8.50;99.90
12291;DHT22;6208;48.956;9.076;2024-02-26T09:54:34;8.50;99.90
12291;DHT22;6208;48.956;9.076;2024-02-26T10:00:10;8.70;99.90
12291;DHT22;6208;48.956;9.076;2024-02-26T10:02:58;8.80;99.90
12291;DHT22;6208;48.956;9.076;2024-02-26T10:05:44;8.80;99.90
12291;DHT22;6208;48.956;9.076;2024-02-26T10:08:29;8.80;99.90
12291;DHT22;6208;48.956;9.076;2024-02-26T10:11:15;8.70;99.90
12291;DHT22;6208;48.956;9.076;2024-02-26T10:16:44;8.90;99.90
12291;DHT22;6208;48.956;9.076;2024-02-26T10:19:29;8.90;99.90
12291;DHT22;6208;48.956;9.076;2024-02-26T10:22:13;9.10;99.90
12291;DHT22;6208;48.956;9.076;2024-02-26T10:30:27;9.20;99.90
12291;DHT22;6208;48.956;9.076;2024-02-26T10:33:11;9.30;99.90
12291;DHT22;6208;48.956;9.076;2024-02-26T10:35:55;9.40;99.90
12291;DHT22;6208;48.956;9.076;2024-02-26T10:44:09;9.60;99.90
12291;DHT22;6208;48.956;9.076;2024-02-26T10:46:55;9.60;99.90
12291;DHT22;6208;48.956;9.076;2024-02-26T10:49:46;9.70;99.90
12291;DHT22;6208;48.956;9.076;2024-02-26T10:52:33;10.20;99.90
12291;DHT22;6208;48.956;9.076;2024-02-26T10:55:17;9.80;99.90
12291;DHT22;6208;48.956;9.076;2024-02-26T10:58:03;9.90;99.90
12291;DHT22;6208;48.956;9.076;2024-02-26T11:00:49;10.00;99.90
12291;DHT22;6208;48.956;9.076;2024-02-26T11:03:35;10.00;99.90
12291;DHT22;6208;48.956;9.076;2024-02-26T11:06:21;10.10;99.90
12291;DHT22;6208;48.956;9.076;2024-02-26T11:09:06;10.20;99.90
12291;DHT22;6208;48.956;9.076;2024-02-26T11:11:52;10.30;99.90
12291;DHT22;6208;48.956;9.076;2024-02-26T11:14:44;10.30;99.90
12291;DHT22;6208;48.956;9.076;2024-02-26T11:17:30;10.30;99.90
12291;DHT22;6208;48.956;9.076;2024-02-26T11:20:16;10.30;99.90
12291;DHT22;6208;48.956;9.076;2024-02-26T11:23:01;10.40;99.90
12291;DHT22;6208;48.956;9.076;2024-02-26T11:25:46;10.50;99.90
12291;DHT22;6208;48.956;9.076;2024-02-26T11:28:32;10.50;99.90
12291;DHT22;6208;48.956;9.076;2024-02-26T11:31:18;10.60;99.90
12291;DHT22;6208;48.956;9.076;2024-02-26T11:34:11;10.60;99.90
12291;DHT22;6208;48.956;9.076;2024-02-26T11:36:55;10.60;99.90
12291;DHT22;6208;48.956;9.076;2024-02-26T11:39:41;10.90;99.90
12291;DHT22;6208;48.956;9.076;2024-02-26T11:48:28;10.90;99.90
12291;DHT22;6208;48.956;9.076;2024-02-26T11:51:13;11.10;99.90
12291;DHT22;6208;48.956;9.076;2024-02-26T11:53:58;11.00;99.90
12291;DHT22;6208;48.956;9.076;2024-02-26T11:56:42;11.10;99.90
12291;DHT22;6208;48.956;9.076;2024-02-26T11:59:39;11.10;99.90
12291;DHT22;6208;48.956;9.076;2024-02-26T12:05:31;11.30;99.90
12291;DHT22;6208;48.956;9.076;2024-02-26T12:11:03;11.50;99.90
12291;DHT22;6208;48.956;9.076;2024-02-26T12:13:47;11.50;99.90
12291;DHT22;6208;48.956;9.076;2024-02-26T12:16:38;11.60;99.90
12291;DHT22;6208;48.956;9.076;2024-02-26T12:19:23;12.50;99.90
12291;DHT22;6208;48.956;9.076;2024-02-26T12:22:08;11.70;99.90
12291;DHT22;6208;48.956;9.076;2024-02-26T12:24:59;11.70;99.90
12291;DHT22;6208;48.956;9.076;2024-02-26T12:27:44;11.80;99.90
12291;DHT22;6208;48.956;9.076;2024-02-26T12:30:30;11.90;99.90
12291;DHT22;6208;48.956;9.076;2024-02-26T12:35:59;12.10;99.90
12291;DHT22;6208;48.956;9.076;2024-02-26T12:41:28;12.20;99.90
12291;DHT22;6208;48.956;9.076;2024-02-26T12:44:16;12.30;99.90
12291;DHT22;6208;48.956;9.076;2024-02-26T12:47:04;12.30;99.90
12291;DHT22;6208;48.956;9.076;2024-02-26T12:49:48;12.40;99.90
12291;DHT22;6208;48.956;9.076;2024-02-26T12:52:34;12.40;99.90
12291;DHT22;6208;48.956;9.076;2024-02-26T12:55:20;12.50;99.90
12291;DHT22;6208;48.956;9.076;2024-02-26T12:58:04;12.50;99.90
12291;DHT22;6208;48.956;9.076;2024-02-26T13:00:48;12.60;99.90
12291;DHT22;6208;48.956;9.076;2024-02-26T13:03:35;12.60;99.90
12291;DHT22;6208;48.956;9.076;2024-02-26T13:09:06;12.70;99.90
12291;DHT22;6208;48.956;9.076;2024-02-26T13:11:56;12.70;99.90
12291;DHT22;6208;48.956;9.076;2024-02-26T13:14:40;12.70;99.90
12291;DHT22;6208;48.956;9.076;2024-02-26T13:17:24;12.70;99.90
12291;DHT22;6208;48.956;9.076;2024-02-26T13:20:12;12.40;99.90
12291;DHT22;6208;48.956;9.076;2024-02-26T13:23:01;12.60;99.90
12291;DHT22;6208;48.956;9.076;2024-02-26T13:25:45;12.80;99.90
12291;DHT22;6208;48.956;9.076;2024-02-26T13:28:29;12.90;99.90
12291;DHT22;6208;48.956;9.076;2024-02-26T13:31:13;13.00;99.90
12291;DHT22;6208;48.956;9.076;2024-02-26T13:33:58;13.10;99.90
12291;DHT22;6208;48.956;9.076;2024-02-26T13:36:42;13.40;99.90
12291;DHT22;6208;48.956;9.076;2024-02-26T13:39:27;13.30;99.90
12291;DHT22;6208;48.956;9.076;2024-02-26T13:50:25;13.60;99.90
12291;DHT22;6208;48.956;9.076;2024-02-26T13:55:55;13.80;99.90
12291;DHT22;6208;48.956;9.076;2024-02-26T14:04:09;14.20;99.90
12291;DHT22;6208;48.956;9.076;2024-02-26T14:06:54;14.30;99.90
12291;DHT22;6208;48.956;9.076;2024-02-26T14:15:08;14.20;99.90
12291;DHT22;6208;48.956;9.076;2024-02-26T14:17:53;14.20;99.90
12291;DHT22;6208;48.956;9.076;2024-02-26T14:23:25;14.20;99.90
12291;DHT22;6208;48.956;9.076;2024-02-26T14:26:09;14.20;99.90
12291;DHT22;6208;48.956;9.076;2024-02-26T14:34:24;14.30;99.90
12291;DHT22;6208;48.956;9.076;2024-02-26T14:37:08;14.30;99.90
12291;DHT22;6208;48.956;9.076;2024-02-26T14:48:07;14.60;99.90
12291;DHT22;6208;48.956;9.076;2024-02-26T14:50:52;14.60;99.90
12291;DHT22;6208;48.956;9.076;2024-02-26T14:53:36;14.50;99.90
12291;DHT22;6208;48.956;9.076;2024-02-26T14:56:20;14.60;99.90
12291;DHT22;6208;48.956;9.076;2024-02-26T14:59:05;14.50;99.90
12291;DHT22;6208;48.956;9.076;2024-02-26T15:01:50;14.80;99.90
12291;DHT22;6208;48.956;9.076;2024-02-26T15:04:34;14.60;99.90
12291;DHT22;6208;48.956;9.076;2024-02-26T15:10:05;14.50;99.90
12291;DHT22;6208;48.956;9.076;2024-02-26T15:12:50;14.40;99.90
12291;DHT22;6208;48.956;9.076;2024-02-26T15:18:25;14.30;99.90
12291;DHT22;6208;48.956;9.076;2024-02-26T15:21:09;14.20;99.90
12291;DHT22;6208;48.956;9.076;2024-02-26T15:23:53;13.90;99.90
12291;DHT22;6208;48.956;9.076;2024-02-26T15:29:24;14.00;99.90
12291;DHT22;6208;48.956;9.076;2024-02-26T15:40:23;13.80;99.90
12291;DHT22;6208;48.956;9.076;2024-02-26T15:43:07;13.70;99.90
12291;DHT22;6208;48.956;9.076;2024-02-26T15:45:51;13.70;99.90
12291;DHT22;6208;48.956;9.076;2024-02-26T15:48:38;13.60;99.90
12291;DHT22;6208;48.956;9.076;2024-02-26T15:51:23;13.60;99.90
12291;DHT22;6208;48.956;9.076;2024-02-26T15:54:10;13.40;99.90
12291;DHT22;6208;48.956;9.076;2024-02-26T15:56:54;13.40;99.90
12291;DHT22;6208;48.956;9.076;2024-02-26T15:59:38;13.50;99.90
12291;DHT22;6208;48.956;9.076;2024-02-26T16:02:23;13.30;99.90
12291;DHT22;6208;48.956;9.076;2024-02-26T16:05:08;13.40;99.90
12291;DHT22;6208;48.956;9.076;2024-02-26T16:07:55;12.90;99.90
12291;DHT22;6208;48.956;9.076;2024-02-26T16:13:26;13.10;99.90
12291;DHT22;6208;48.956;9.076;2024-02-26T16:16:16;13.10;99.90
12291;DHT22;6208;48.956;9.076;2024-02-26T16:19:08;13.20;99.90
12291;DHT22;6208;48.956;9.076;2024-02-26T16:24:38;13.40;99.90
12291;DHT22;6208;48.956;9.076;2024-02-26T16:27:22;13.50;99.90
12291;DHT22;6208;48.956;9.076;2024-02-26T16:30:07;13.60;99.90
12291;DHT22;6208;48.956;9.076;2024-02-26T16:32:52;13.50;99.90
12291;DHT22;6208;48.956;9.076;2024-02-26T16:35:36;13.40;99.90
12291;DHT22;6208;48.956;9.076;2024-02-26T16:38:21;13.40;99.90
12291;DHT22;6208;48.956;9.076;2024-02-26T16:43:50;13.20;99.90
12291;DHT22;6208;48.956;9.076;2024-02-26T16:49:19;13.10;99.90
12291;DHT22;6208;48.956;9.076;2024-02-26T16:52:04;12.70;99.90
12291;DHT22;6208;48.956;9.076;2024-02-26T16:54:49;13.30;99.90
12291;DHT22;6208;48.956;9.076;2024-02-26T17:03:02;12.70;99.90
12291;DHT22;6208;48.956;9.076;2024-02-26T17:08:31;13.00;99.90
12291;DHT22;6208;48.956;9.076;2024-02-26T17:11:17;12.90;99.90
12291;DHT22;6208;48.956;9.076;2024-02-26T17:14:02;12.80;99.90
12291;DHT22;6208;48.956;9.076;2024-02-26T17:22:15;12.50;99.90
12291;DHT22;6208;48.956;9.076;2024-02-26T17:25:02;12.60;99.90
12291;DHT22;6208;48.956;9.076;2024-02-26T17:30:31;12.40;99.90
12291;DHT22;6208;48.956;9.076;2024-02-26T17:33:15;12.30;99.90
12291;DHT22;6208;48.956;9.076;2024-02-26T17:35:59;12.30;99.90
12291;DHT22;6208;48.956;9.076;2024-02-26T17:38:43;12.30;99.90
12291;DHT22;6208;48.956;9.076;2024-02-26T17:41:29;12.00;99.90
12291;DHT22;6208;48.956;9.076;2024-02-26T17:44:13;12.00;99.90
12291;DHT22;6208;48.956;9.076;2024-02-26T17:46:57;12.10;99.90
12291;DHT22;6208;48.956;9.076;2024-02-26T17:49:41;12.00;99.90
12291;DHT22;6208;48.956;9.076;2024-02-26T17:52:25;11.90;99.90
12291;DHT22;6208;48.956;9.076;2024-02-26T17:55:09;11.90;99.90
12291;DHT22;6208;48.956;9.076;2024-02-26T17:57:54;11.80;99.90
12291;DHT22;6208;48.956;9.076;2024-02-26T18:00:38;11.90;99.90
12291;DHT22;6208;48.956;9.076;2024-02-26T18:03:22;12.00;99.90
12291;DHT22;6208;48.956;9.076;2024-02-26T18:06:06;11.90;99.90
12291;DHT22;6208;48.956;9.076;2024-02-26T18:11:35;11.80;99.90
12291;DHT22;6208;48.956;9.076;2024-02-26T18:14:20;11.80;99.90
12291;DHT22;6208;48.956;9.076;2024-02-26T18:17:05;11.80;99.90
12291;DHT22;6208;48.956;9.076;2024-02-26T18:22:34;12.00;99.90
12291;DHT22;6208;48.956;9.076;2024-02-26T18:25:19;11.80;99.90
12291;DHT22;6208;48.956;9.076;2024-02-26T18:36:17;11.70;99.90
12291;DHT22;6208;48.956;9.076;2024-02-26T18:47:24;11.50;99.90
12291;DHT22;6208;48.956;9.076;2024-02-26T18:50:09;11.60;99.90
12291;DHT22;6208;48.956;9.076;2024-02-26T18:55:37;11.60;99.90
12291;DHT22;6208;48.956;9.076;2024-02-26T18:58:22;11.40;99.90
12291;DHT22;6208;48.956;9.076;2024-02-26T19:01:07;11.60;99.90
12291;DHT22;6208;48.956;9.076;2024-02-26T19:06:36;11.60;99.90
12291;DHT22;6208;48.956;9.076;2024-02-26T19:09:22;11.70;99.90
12291;DHT22;6208;48.956;9.076;2024-02-26T19:12:07;11.50;99.90
12291;DHT22;6208;48.956;9.076;2024-02-26T19:20:22;11.50;99.90
12291;DHT22;6208;48.956;9.076;2024-02-26T19:23:06;11.70;99.90
12291;DHT22;6208;48.956;9.076;2024-02-26T19:25:50;11.30;99.90
12291;DHT22;6208;48.956;9.076;2024-02-26T19:28:34;11.30;99.90
12291;DHT22;6208;48.956;9.076;2024-02-26T19:31:18;11.30;99.90
12291;DHT22;6208;48.956;9.076;2024-02-26T19:34:02;11.20;99.90
12291;DHT22;6208;48.956;9.076;2024-02-26T19:39:32;11.10;99.90
12291;DHT22;6208;48.956;9.076;2024-02-26T19:42:16;11.10;99.90
12291;DHT22;6208;48.956;9.076;2024-02-26T19:47:45;11.00;99.90
12291;DHT22;6208;48.956;9.076;2024-02-26T19:56:00;11.30;99.90
12291;DHT22;6208;48.956;9.076;2024-02-26T19:58:45;11.10;99.90
12291;DHT22;6208;48.956;9.076;2024-02-26T20:01:29;11.30;99.90
12291;DHT22;6208;48.956;9.076;2024-02-26T20:04:13;11.00;99.90
12291;DHT22;6208;48.956;9.076;2024-02-26T20:06:59;11.00;99.90
12291;DHT22;6208;48.956;9.076;2024-02-26T20:09:43;10.80;99.90
12291;DHT22;6208;48.956;9.076;2024-02-26T20:15:12;10.80;99.90
12291;DHT22;6208;48.956;9.076;2024-02-26T20:23:27;10.80;99.90
12291;DHT22;6208;48.956;9.076;2024-02-26T20:26:11;10.30;99.90
12291;DHT22;6208;48.956;9.076;2024-02-26T20:31:40;10.40;99.90
12291;DHT22;6208;48.956;9.076;2024-02-26T20:34:26;10.40;99.90
12291;DHT22;6208;48.956;9.076;2024-02-26T20:37:11;10.30;99.90
12291;DHT22;6208;48.956;9.076;2024-02-26T20:42:39;10.20;99.90
12291;DHT22;6208;48.956;9.076;2024-02-26T20:45:23;10.20;99.90
12291;DHT22;6208;48.956;9.076;2024-02-26T20:50:53;10.10;99.90
12291;DHT22;6208;48.956;9.076;2024-02-26T20:53:38;10.10;99.90
12291;DHT22;6208;48.956;9.076;2024-02-26T20:56:23;10.00;99.90
12291;DHT22;6208;48.956;9.076;2024-02-26T20:59:11;10.10;99.90
12291;DHT22;6208;48.956;9.076;2024-02-26T21:04:42;10.00;99.90
12291;DHT22;6208;48.956;9.076;2024-02-26T21:07:27;9.90;99.90
12291;DHT22;6208;48.956;9.076;2024-02-26T21:12:59;10.00;99.90
12291;DHT22;6208;48.956;9.076;2024-02-26T21:18:28;10.10;99.90
12291;DHT22;6208;48.956;9.076;2024-02-26T21:29:27;9.90;99.90
12291;DHT22;6208;48.956;9.076;2024-02-26T21:32:11;9.90;99.90
12291;DHT22;6208;48.956;9.076;2024-02-26T21:34:56;9.80;99.90
12291;DHT22;6208;48.956;9.076;2024-02-26T21:37:41;9.70;99.90
12291;DHT22;6208;48.956;9.076;2024-02-26T21:45:55;9.80;99.90
12291;DHT22;6208;48.956;9.076;2024-02-26T21:51:23;9.60;99.90
12291;DHT22;6208;48.956;9.076;2024-02-26T21:54:07;9.70;99.90
12291;DHT22;6208;48.956;9.076;2024-02-26T21:56:52;9.90;99.90
12291;DHT22;6208;48.956;9.076;2024-02-26T21:59:36;9.90;99.90
12291;DHT22;6208;48.956;9.076;2024-02-26T22:02:21;9.70;99.90
12291;DHT22;6208;48.956;9.076;2024-02-26T22:05:05;9.80;99.90
12291;DHT22;6208;48.956;9.076;2024-02-26T22:07:50;9.90;99.90
12291;DHT22;6208;48.956;9.076;2024-02-26T22:13:19;9.80;99.90
12291;DHT22;6208;48.956;9.076;2024-02-26T22:18:48;9.90;99.90
12291;DHT22;6208;48.956;9.076;2024-02-26T22:21:33;9.90;99.90
12291;DHT22;6208;48.956;9.076;2024-02-26T22:24:17;9.90;99.90
12291;DHT22;6208;48.956;9.076;2024-02-26T22:32:30;10.00;99.90
12291;DHT22;6208;48.956;9.076;2024-02-26T22:35:15;10.00;99.90
12291;DHT22;6208;48.956;9.076;2024-02-26T22:37:59;10.00;99.90
12291;DHT22;6208;48.956;9.076;2024-02-26T22:40:43;10.00;99.90
12291;DHT22;6208;48.956;9.076;2024-02-26T22:43:30;9.90;99.90
12291;DHT22;6208;48.956;9.076;2024-02-26T22:46:15;9.90;99.90
12291;DHT22;6208;48.956;9.076;2024-02-26T22:48:59;10.00;99.90
12291;DHT22;6208;48.956;9.076;2024-02-26T22:51:43;9.90;99.90
12291;DHT22;6208;48.956;9.076;2024-02-26T22:57:11;9.90;99.90
12291;DHT22;6208;48.956;9.076;2024-02-26T23:02:40;9.80;99.90
12291;DHT22;6208;48.956;9.076;2024-02-26T23:05:24;10.00;99.90
12291;DHT22;6208;48.956;9.076;2024-02-26T23:08:09;10.10;99.90
12291;DHT22;6208;48.956;9.076;2024-02-26T23:10:55;9.90;99.90
12291;DHT22;6208;48.956;9.076;2024-02-26T23:13:39;9.80;99.90
12291;DHT22;6208;48.956;9.076;2024-02-26T23:19:11;9.90;99.90
12291;DHT22;6208;48.956;9.076;2024-02-26T23:21:56;9.90;99.90
12291;DHT22;6208;48.956;9.076;2024-02-26T23:24:40;9.90;99.90
12291;DHT22;6208;48.956;9.076;2024-02-26T23:27:24;10.00;99.90
12291;DHT22;6208;48.956;9.076;2024-02-26T23:30:08;9.50;99.90
12291;DHT22;6208;48.956;9.076;2024-02-26T23:32:52;9.70;99.90
12291;DHT22;6208;48.956;9.076;2024-02-26T23:38:21;9.80;99.90
12291;DHT22;6208;48.956;9.076;2024-02-26T23:43:49;9.70;99.90
12291;DHT22;6208;48.956;9.076;2024-02-26T23:46:33;9.60;99.90
12291;DHT22;6208;48.956;9.076;2024-02-26T23:49:19;9.60;99.90
12291;DHT22;6208;48.956;9.076;2024-02-26T23:52:03;9.50;99.90
12291;DHT22;6208;48.956;9.076;2024-02-26T23:57:32;9.50;99.90
